Terminal Aerodrome Forecast
Issued by NWS

Home | Current Version | Previous Version | Graphics & Text | Print | Product List | Glossary On
Versions: 1 2 3 4 5 6 7 8 9 10 11 12 13 14 15 16 17 18 19 20 21 22 23 24 25
128
FTUS43 KUNR 272323
TAFGCC
TAF
KGCC 272323Z 2800/2824 33010KT 3SM -SN SCT008 OVC013
     FM280200 36005KT 1 1/2SM -SN BR OVC007
     FM281000 03006KT 1SM BR OVC004
     FM281600 01006KT P6SM OVC007
     FM281900 05008KT P6SM OVC013
     FM282200 03010KT P6SM OVC025=

USA.gov is the U.S. government's official web portal to all federal, state and local government web resources and services.